Miami, FL

1:44 PM EDT on August 29, 2015 (GMT -0400)
JA Richmond West | | Change Station
CLOSE
Current Station
Personal Weather Station
Location: Miami, FL
Elevation: 7 ft
Nearby Weather Stations

Elev 7 ft 25.61 °N, 80.43 °W | Updated 17 seconds ago

Scattered Clouds
Scattered Clouds
93.4 °F
Feels Like 107 °F
N
6.3
Wind Variable Wind from ENE
Gusts 11.9 mph

Today
High -- | Low -- °F
--% Chance of Precip.
Yesterday
High -- | Low -- °F
Precip. -- in
7:00 AM 7:44 PM
Full, 100% visible
Pressure 30.02 in
Visibility 10.0 miles
Clouds Few 3100 ft
Few 4100 ft
Scattered Clouds 5000 ft
Heat Index 107 °F
Dew Point 76 °F
Humidity 58%
Rainfall 0.00 in
Snow Depth Not available.
UV 12 out of 12
Pollen 4.60 out of 12
Air Quality Not available.
Flu Activity Not available.
METAR KTMB 291653Z 11012KT 10SM FEW031 FEW041 SCT050 33/26 A3002 RMK AO2 SLP165 T03280256 $
Pressure 30.02 in
Visibility 10.0 miles
Clouds Few 3100 ft
Few 4100 ft
Scattered Clouds 5000 ft
Heat Index 107 °F
Dew Point 76 °F
Humidity 58%
Rainfall 0.00 in
Snow Depth Not available.
UV 12 out of 12
Pollen 4.60 out of 12
Air Quality Not available.
Flu Activity Not available.
METAR KTMB 291653Z 11012KT 10SM FEW031 FEW041 SCT050 33/26 A3002 RMK AO2 SLP165 T03280256 $
Nowcast | as of 1:15 PM EDT on August 29, 2015

Showers and thunderstorms will become more numerous through the afternoon. Expect frequent cloud to ground lightning strikes, heavy rainfall and winds gusting to 40 mph with the strongest storms. Activity will move to the west northwest around 20 mph.

×

10-Day Weather Forecast

×

Almanac

Astronomy

Aug. 29, 2015 Rise Set
Actual Time
Civil Twilight
Nautical Twilight
Astronomical Twilight
Moon
Length of Visible Light
Length of Day
Tomorrow will be .
, % of the Moon is Illuminated

Today's Extremes

State Highs State Lows

Community

WunderPhotos

Upload Photos

1,850,743 photos uploaded!

WunderBlogs® & News

Nearby

Air Quality

  Air Quality AQ Index Pollutant
Not available.

Snow Depth

Station Depth Elevation

Earthquake Activity

City Distance Mag. Time & Date
Minimum magnitude displayed is 2.5.

Coastal Water Temperatures

Place Temperature

Stations

Nearby Weather Stations

Station Location Temp. Windchill Dew Point Humidity Wind Precip. Elev Updated Type